createdAt,value
2023-04-28T00:00:25.547Z,567.00
2023-04-28T00:01:25.625Z,564.00
2023-04-28T00:02:25.789Z,565.00
2023-04-28T00:03:25.810Z,565.00
2023-04-28T00:04:26.194Z,564.00
2023-04-28T00:05:25.874Z,563.00
2023-04-28T00:06:25.878Z,563.00
2023-04-28T00:07:25.950Z,564.00
2023-04-28T00:08:25.999Z,563.00
2023-04-28T00:09:26.065Z,562.00
2023-04-28T00:10:26.087Z,563.00
2023-04-28T00:11:26.140Z,563.00
2023-04-28T00:12:26.124Z,564.00
2023-04-28T00:13:26.200Z,562.00
2023-04-28T00:14:26.201Z,562.00
2023-04-28T00:15:26.225Z,562.00
2023-04-28T00:16:26.298Z,563.00
2023-04-28T00:17:26.353Z,564.00
2023-04-28T00:18:26.320Z,563.00
2023-04-28T00:19:26.291Z,561.00
2023-04-28T00:20:26.380Z,562.00
2023-04-28T00:21:26.359Z,563.00
2023-04-28T00:22:26.388Z,562.00
2023-04-28T00:23:26.469Z,565.00
2023-04-28T00:24:26.452Z,565.00
2023-04-28T00:25:26.537Z,564.00
2023-04-28T00:26:26.599Z,562.00
2023-04-28T00:27:26.596Z,561.00
2023-04-28T00:28:34.164Z,563.00
2023-04-28T00:29:27.693Z,564.00
2023-04-28T00:30:26.634Z,564.00
2023-04-28T00:31:26.719Z,563.00
2023-04-28T00:32:26.699Z,563.00
2023-04-28T00:33:26.646Z,564.00
2023-04-28T00:34:26.661Z,564.00
2023-04-28T00:35:26.601Z,563.00
2023-04-28T00:36:26.612Z,564.00
2023-04-28T00:37:26.673Z,563.00
2023-04-28T00:38:26.711Z,564.00
2023-04-28T00:39:26.786Z,567.00
2023-04-28T00:40:26.857Z,568.00
2023-04-28T00:41:26.905Z,570.00
2023-04-28T00:42:26.947Z,568.00
2023-04-28T00:43:26.977Z,566.00
2023-04-28T00:44:27.081Z,565.00
2023-04-28T00:45:27.127Z,565.00
2023-04-28T00:46:27.198Z,564.00
2023-04-28T00:47:27.205Z,564.00
2023-04-28T00:48:27.263Z,565.00
2023-04-28T00:49:27.290Z,567.00
2023-04-28T00:50:27.389Z,571.00
2023-04-28T00:51:27.388Z,573.00
2023-04-28T00:52:27.427Z,577.00
2023-04-28T00:53:27.506Z,578.00
2023-04-28T00:54:27.551Z,578.00
2023-04-28T00:55:27.587Z,577.00
2023-04-28T00:56:27.721Z,575.00
2023-04-28T00:57:27.729Z,575.00
2023-04-28T00:58:27.787Z,575.00
2023-04-28T00:59:27.854Z,576.00
2023-04-28T01:00:27.907Z,576.00
2023-04-28T01:01:27.996Z,577.00
2023-04-28T01:02:28.136Z,575.00
2023-04-28T01:03:28.266Z,574.00
2023-04-28T01:04:28.208Z,575.00
2023-04-28T01:05:28.261Z,575.00
2023-04-28T01:06:28.246Z,573.00
2023-04-28T01:07:28.302Z,571.00
2023-04-28T01:08:28.356Z,570.00
2023-04-28T01:09:28.431Z,571.00
2023-04-28T01:10:28.462Z,570.00
2023-04-28T01:11:28.497Z,572.00
2023-04-28T01:12:28.544Z,572.00
2023-04-28T01:13:28.580Z,570.00
2023-04-28T01:14:28.603Z,571.00
2023-04-28T01:15:28.685Z,572.00
2023-04-28T01:16:28.705Z,574.00
2023-04-28T01:17:28.831Z,574.00
2023-04-28T01:18:28.758Z,574.00
2023-04-28T01:19:28.799Z,573.00
2023-04-28T01:20:28.812Z,571.00
2023-04-28T01:21:28.819Z,570.00
2023-04-28T01:22:28.829Z,570.00
2023-04-28T01:23:28.806Z,569.00
2023-04-28T01:24:28.779Z,568.00
2023-04-28T01:25:28.782Z,568.00
2023-04-28T01:26:28.795Z,567.00
2023-04-28T01:27:28.806Z,566.00
2023-04-28T01:28:28.799Z,567.00
2023-04-28T01:29:28.803Z,568.00
2023-04-28T01:30:28.818Z,570.00
2023-04-28T01:31:28.824Z,572.00
2023-04-28T01:32:28.858Z,575.00
2023-04-28T01:33:28.937Z,576.00
2023-04-28T01:34:28.949Z,575.00
2023-04-28T01:35:29.016Z,577.00
2023-04-28T01:36:29.083Z,579.00
2023-04-28T01:37:29.132Z,578.00
2023-04-28T01:38:29.175Z,578.00
2023-04-28T01:39:29.193Z,578.00
2023-04-28T01:40:29.276Z,580.00
2023-04-28T01:41:29.297Z,577.00
2023-04-28T01:42:29.369Z,576.00
2023-04-28T01:43:29.383Z,573.00
2023-04-28T01:44:29.488Z,574.00
2023-04-28T01:45:29.490Z,575.00
2023-04-28T01:46:29.588Z,576.00
2023-04-28T01:47:29.611Z,578.00
2023-04-28T01:48:29.623Z,579.00
2023-04-28T01:49:29.658Z,577.00
2023-04-28T01:50:29.688Z,578.00
2023-04-28T01:51:29.713Z,579.00
2023-04-28T01:52:29.790Z,578.00
2023-04-28T01:53:29.821Z,577.00
2023-04-28T01:54:29.856Z,575.00
2023-04-28T01:55:29.913Z,575.00
2023-04-28T01:56:29.974Z,573.00
2023-04-28T01:57:30.021Z,573.00
2023-04-28T01:58:30.100Z,574.00
2023-04-28T01:59:30.142Z,574.00
2023-04-28T02:00:30.205Z,576.00
2023-04-28T02:01:30.288Z,577.00
2023-04-28T02:02:30.481Z,577.00
2023-04-28T02:03:30.519Z,576.00
2023-04-28T02:04:30.486Z,575.00
2023-04-28T02:05:30.554Z,574.00
2023-04-28T02:06:30.577Z,574.00
2023-04-28T02:07:30.635Z,575.00
2023-04-28T02:08:30.666Z,573.00
2023-04-28T02:09:30.717Z,574.00
2023-04-28T02:10:30.793Z,576.00
2023-04-28T02:11:30.799Z,574.00
2023-04-28T02:12:30.842Z,574.00
2023-04-28T02:13:30.918Z,575.00
2023-04-28T02:14:30.989Z,573.00
2023-04-28T02:15:31.027Z,571.00
2023-04-28T02:16:31.208Z,571.00
2023-04-28T02:17:31.166Z,572.00
2023-04-28T02:18:31.204Z,575.00
2023-04-28T02:19:31.263Z,574.00
2023-04-28T02:20:33.170Z,575.00
2023-04-28T02:21:31.271Z,576.00
2023-04-28T02:22:31.315Z,575.00
2023-04-28T02:23:31.324Z,576.00
2023-04-28T02:24:31.295Z,577.00
2023-04-28T02:25:31.338Z,579.00
2023-04-28T02:26:31.347Z,578.00
2023-04-28T02:27:31.353Z,578.00
2023-04-28T02:28:31.427Z,580.00
2023-04-28T02:29:31.420Z,579.00
2023-04-28T02:30:31.490Z,579.00
2023-04-28T02:31:31.590Z,579.00
2023-04-28T02:32:31.563Z,579.00
2023-04-28T02:33:31.602Z,579.00
2023-04-28T02:34:31.700Z,579.00
2023-04-28T02:35:31.711Z,580.00
2023-04-28T02:36:31.714Z,580.00
2023-04-28T02:37:31.765Z,582.00
2023-04-28T02:38:31.803Z,582.00
2023-04-28T02:39:31.847Z,585.00
2023-04-28T02:40:31.855Z,583.00
2023-04-28T02:41:31.860Z,582.00
2023-04-28T02:42:31.933Z,582.00
2023-04-28T02:43:31.949Z,584.00
2023-04-28T02:44:31.944Z,583.00
2023-04-28T02:45:31.983Z,585.00
2023-04-28T02:46:32.042Z,585.00
2023-04-28T02:47:32.110Z,582.00
2023-04-28T02:48:32.117Z,580.00
2023-04-28T02:49:32.115Z,580.00
2023-04-28T02:50:32.187Z,581.00
2023-04-28T02:51:32.195Z,581.00
2023-04-28T02:52:32.237Z,582.00
2023-04-28T02:53:32.312Z,582.00
2023-04-28T02:54:32.352Z,582.00
2023-04-28T02:55:32.424Z,585.00
2023-04-28T02:56:32.472Z,585.00
2023-04-28T02:57:32.548Z,582.00
2023-04-28T02:58:32.581Z,582.00
2023-04-28T02:59:32.657Z,580.00
2023-04-28T03:00:32.701Z,580.00
2023-04-28T03:01:32.809Z,578.00
2023-04-28T03:02:32.898Z,577.00
2023-04-28T03:03:33.156Z,577.00
2023-04-28T03:04:33.060Z,576.00
2023-04-28T03:05:32.970Z,577.00
2023-04-28T03:06:33.048Z,578.00
2023-04-28T03:07:33.068Z,579.00
2023-04-28T03:08:33.185Z,579.00
2023-04-28T03:09:33.239Z,579.00
2023-04-28T03:10:33.271Z,578.00
2023-04-28T03:11:33.354Z,578.00
2023-04-28T03:12:33.398Z,577.00
2023-04-28T03:13:33.423Z,579.00
2023-04-28T03:14:33.476Z,583.00
2023-04-28T03:15:33.553Z,581.00
2023-04-28T03:16:33.561Z,582.00
2023-04-28T03:17:33.608Z,582.00
2023-04-28T03:18:33.574Z,584.00
2023-04-28T03:19:33.554Z,584.00
2023-04-28T03:20:33.523Z,584.00
2023-04-28T03:21:33.524Z,583.00
2023-04-28T03:22:33.516Z,584.00
2023-04-28T03:23:33.597Z,583.00
2023-04-28T03:24:33.548Z,582.00
2023-04-28T03:25:33.552Z,583.00
2023-04-28T03:26:33.634Z,584.00
2023-04-28T03:27:33.639Z,586.00
2023-04-28T03:28:33.622Z,585.00
2023-04-28T03:29:33.634Z,585.00
2023-04-28T03:30:33.697Z,585.00
2023-04-28T03:31:33.751Z,585.00
2023-04-28T03:32:33.821Z,584.00
2023-04-28T03:33:33.770Z,587.00
2023-04-28T03:34:33.759Z,589.00
2023-04-28T03:35:33.844Z,591.00
2023-04-28T03:36:33.766Z,588.00
2023-04-28T03:37:33.775Z,586.00
2023-04-28T03:38:33.802Z,587.00
2023-04-28T03:39:33.861Z,585.00
2023-04-28T03:40:33.845Z,584.00
2023-04-28T03:41:33.832Z,586.00
2023-04-28T03:42:33.882Z,586.00
2023-04-28T03:43:33.879Z,585.00
2023-04-28T03:44:33.894Z,585.00
2023-04-28T03:45:33.990Z,585.00
2023-04-28T03:46:33.948Z,586.00
2023-04-28T03:47:34.014Z,584.00
2023-04-28T03:48:33.960Z,586.00
2023-04-28T03:49:34.036Z,588.00
2023-04-28T03:50:34.060Z,591.00
2023-04-28T03:51:34.073Z,591.00
2023-04-28T03:52:34.099Z,588.00
2023-04-28T03:53:34.163Z,586.00
2023-04-28T03:54:34.175Z,587.00
2023-04-28T03:55:34.226Z,589.00
2023-04-28T03:56:34.232Z,589.00
2023-04-28T03:57:34.286Z,590.00
2023-04-28T03:58:34.297Z,590.00
2023-04-28T03:59:34.358Z,591.00
2023-04-28T04:00:34.327Z,590.00
2023-04-28T04:01:34.366Z,590.00
2023-04-28T04:02:34.540Z,592.00
2023-04-28T04:03:34.588Z,589.00
2023-04-28T04:04:34.755Z,589.00
2023-04-28T04:05:34.602Z,589.00
2023-04-28T04:06:34.559Z,591.00
2023-04-28T04:07:34.567Z,590.00
2023-04-28T04:08:34.582Z,589.00
2023-04-28T04:09:34.582Z,587.00
2023-04-28T04:10:34.594Z,588.00
2023-04-28T04:11:34.576Z,590.00
2023-04-28T04:12:34.549Z,591.00
2023-04-28T04:13:34.607Z,590.00
2023-04-28T04:14:34.652Z,588.00
2023-04-28T04:15:34.759Z,586.00
2023-04-28T04:16:34.787Z,584.00
2023-04-28T04:17:34.877Z,584.00
2023-04-28T04:18:34.908Z,585.00
2023-04-28T04:19:35.408Z,584.00
2023-04-28T04:20:34.966Z,586.00
2023-04-28T04:21:35.017Z,588.00
2023-04-28T04:22:35.065Z,588.00
2023-04-28T04:23:35.080Z,588.00
2023-04-28T04:24:35.134Z,588.00
2023-04-28T04:25:35.222Z,589.00
2023-04-28T04:26:35.280Z,590.00
2023-04-28T04:27:35.460Z,590.00
2023-04-28T04:28:35.314Z,589.00
2023-04-28T04:29:35.360Z,589.00
2023-04-28T04:30:35.420Z,589.00
2023-04-28T04:31:35.468Z,588.00
2023-04-28T04:32:35.479Z,586.00
2023-04-28T04:33:35.487Z,586.00
2023-04-28T04:34:35.488Z,586.00
2023-04-28T04:35:35.514Z,586.00
2023-04-28T04:36:35.519Z,585.00
2023-04-28T04:37:35.581Z,586.00
2023-04-28T04:38:35.575Z,587.00
2023-04-28T04:39:35.590Z,589.00
2023-04-28T04:40:35.643Z,589.00
2023-04-28T04:41:35.657Z,589.00
2023-04-28T04:42:35.661Z,589.00
2023-04-28T04:43:35.653Z,591.00
2023-04-28T04:44:35.658Z,593.00
2023-04-28T04:45:35.672Z,594.00
2023-04-28T04:46:35.776Z,593.00
2023-04-28T04:47:35.799Z,592.00
2023-04-28T04:48:35.746Z,593.00
2023-04-28T04:49:35.817Z,593.00
2023-04-28T04:50:35.868Z,591.00
2023-04-28T04:51:35.873Z,589.00
2023-04-28T04:52:35.984Z,589.00
2023-04-28T04:53:35.988Z,589.00
2023-04-28T04:54:36.106Z,590.00
2023-04-28T04:55:36.104Z,589.00
2023-04-28T04:56:36.160Z,590.00
2023-04-28T04:57:36.175Z,588.00
2023-04-28T04:58:36.225Z,587.00
2023-04-28T04:59:36.186Z,588.00
2023-04-28T05:00:36.273Z,589.00
2023-04-28T05:01:36.255Z,587.00
2023-04-28T05:02:36.370Z,587.00
2023-04-28T05:03:36.362Z,587.00
2023-04-28T05:04:36.380Z,588.00
2023-04-28T05:05:36.344Z,589.00
2023-04-28T05:06:36.382Z,589.00
2023-04-28T05:07:36.496Z,587.00
2023-04-28T05:08:36.507Z,586.00
2023-04-28T05:09:36.619Z,585.00
2023-04-28T05:10:36.647Z,585.00
2023-04-28T05:11:36.738Z,584.00
2023-04-28T05:12:36.772Z,585.00
2023-04-28T05:13:36.849Z,586.00
2023-04-28T05:14:36.904Z,585.00
2023-04-28T05:15:36.960Z,584.00
2023-04-28T05:16:37.031Z,582.00
2023-04-28T05:17:37.047Z,581.00
2023-04-28T05:18:37.085Z,580.00
2023-04-28T05:19:37.133Z,580.00
2023-04-28T05:20:37.220Z,581.00
2023-04-28T05:21:37.260Z,582.00
2023-04-28T05:22:37.313Z,587.00
2023-04-28T05:23:37.332Z,590.00
2023-04-28T05:24:37.440Z,590.00
2023-04-28T05:25:37.484Z,589.00
2023-04-28T05:26:37.562Z,593.00
2023-04-28T05:27:37.613Z,594.00
2023-04-28T05:28:37.667Z,594.00
2023-04-28T05:29:37.722Z,594.00
2023-04-28T05:30:37.784Z,594.00
2023-04-28T05:31:37.870Z,596.00
2023-04-28T05:32:37.919Z,599.00
2023-04-28T05:33:37.913Z,641.00
2023-04-28T05:34:37.964Z,686.00
2023-04-28T05:35:37.946Z,735.00
2023-04-28T05:36:38.027Z,778.00
2023-04-28T05:37:38.044Z,779.00
2023-04-28T05:38:38.124Z,764.00
2023-04-28T05:39:38.074Z,769.00
2023-04-28T05:40:38.124Z,784.00
2023-04-28T05:41:38.214Z,838.00
2023-04-28T05:42:38.223Z,825.00
2023-04-28T05:43:38.281Z,817.00
2023-04-28T05:44:38.332Z,813.00
2023-04-28T05:45:38.370Z,817.00
2023-04-28T05:46:38.547Z,844.00
2023-04-28T05:47:38.509Z,832.00
2023-04-28T05:48:38.493Z,833.00
2023-04-28T05:49:38.517Z,842.00
2023-04-28T05:50:39.137Z,852.00
2023-04-28T05:51:38.541Z,867.00
2023-04-28T05:52:38.550Z,880.00
2023-04-28T05:53:38.583Z,954.00
2023-04-28T05:54:38.600Z,952.00
2023-04-28T05:55:38.633Z,945.00
2023-04-28T05:56:38.629Z,950.00
2023-04-28T05:57:49.306Z,957.00
2023-04-28T05:58:39.605Z,960.00
2023-04-28T05:59:38.633Z,966.00
2023-04-28T06:00:38.954Z,973.00
2023-04-28T06:01:38.612Z,978.00
2023-04-28T06:02:38.723Z,989.00
2023-04-28T06:03:39.500Z,992.00
2023-04-28T06:04:38.797Z,1004.00
2023-04-28T06:05:39.020Z,1011.00
2023-04-28T06:06:38.574Z,1015.00
2023-04-28T06:07:38.549Z,1014.00
2023-04-28T06:08:38.555Z,1013.00
2023-04-28T06:09:38.563Z,1015.00
2023-04-28T06:10:38.576Z,1017.00
2023-04-28T06:11:38.569Z,1023.00
2023-04-28T06:12:38.571Z,1029.00
2023-04-28T06:13:38.541Z,1029.00
2023-04-28T06:14:38.564Z,1037.00
2023-04-28T06:15:38.561Z,1068.00
2023-04-28T06:16:38.504Z,1078.00
2023-04-28T06:17:38.569Z,1080.00
2023-04-28T06:18:38.561Z,1087.00
2023-04-28T06:19:38.523Z,1090.00
2023-04-28T06:20:38.477Z,1091.00
2023-04-28T06:21:38.486Z,1091.00
2023-04-28T06:22:38.548Z,1088.00
2023-04-28T06:23:38.612Z,1092.00
2023-04-28T06:24:38.616Z,1099.00
2023-04-28T06:25:38.675Z,1102.00
2023-04-28T06:26:38.681Z,965.00
2023-04-28T06:27:38.707Z,977.00
2023-04-28T06:28:38.719Z,980.00
2023-04-28T06:29:38.703Z,987.00
2023-04-28T06:30:38.708Z,945.00
2023-04-28T06:31:38.766Z,959.00
2023-04-28T06:32:38.786Z,983.00
2023-04-28T06:33:38.665Z,1030.00
2023-04-28T06:34:38.778Z,1043.00
2023-04-28T06:35:38.745Z,1049.00
2023-04-28T06:36:38.972Z,1053.00
2023-04-28T06:37:38.850Z,1056.00
2023-04-28T06:38:38.858Z,1058.00
2023-04-28T06:39:38.904Z,1069.00
2023-04-28T06:40:38.975Z,1073.00
2023-04-28T06:41:39.025Z,1072.00
2023-04-28T06:42:39.106Z,1086.00
2023-04-28T06:43:39.152Z,1101.00
2023-04-28T06:44:39.196Z,1107.00
2023-04-28T06:45:39.248Z,1114.00
2023-04-28T06:46:39.518Z,1119.00
2023-04-28T06:47:39.580Z,1121.00
2023-04-28T06:48:39.427Z,1127.00
2023-04-28T06:49:39.446Z,1129.00
2023-04-28T06:50:41.141Z,1127.00
2023-04-28T06:51:39.493Z,1127.00
2023-04-28T06:52:39.893Z,1130.00
2023-04-28T06:53:39.525Z,1134.00
2023-04-28T06:54:39.484Z,1136.00
2023-04-28T06:55:39.488Z,1141.00
2023-04-28T06:56:39.498Z,1143.00
2023-04-28T06:57:40.036Z,1153.00
2023-04-28T06:58:39.448Z,1162.00
2023-04-28T06:59:39.453Z,1170.00
2023-04-28T07:00:39.473Z,1173.00
2023-04-28T07:01:39.556Z,1174.00
2023-04-28T07:02:39.567Z,1179.00
2023-04-28T07:03:39.508Z,1178.00
2023-04-28T07:04:39.643Z,1170.00
2023-04-28T07:05:39.407Z,1171.00
2023-04-28T07:06:39.441Z,1174.00
2023-04-28T07:07:39.441Z,1178.00
2023-04-28T07:08:39.424Z,1178.00
2023-04-28T07:09:39.715Z,1182.00
2023-04-28T07:10:39.396Z,1187.00
2023-04-28T07:11:39.348Z,1192.00
2023-04-28T07:12:39.417Z,1203.00
2023-04-28T07:13:39.430Z,1223.00
2023-04-28T07:14:39.369Z,1267.00
2023-04-28T07:15:39.348Z,1267.00
2023-04-28T07:16:39.355Z,1263.00
2023-04-28T07:17:39.397Z,1258.00
2023-04-28T07:18:39.302Z,1257.00
2023-04-28T07:19:39.355Z,1260.00
2023-04-28T07:20:39.361Z,1255.00
2023-04-28T07:21:39.283Z,1244.00
2023-04-28T07:22:39.331Z,1251.00
2023-04-28T07:23:39.304Z,1258.00
2023-04-28T07:24:39.285Z,1255.00
2023-04-28T07:25:39.292Z,1260.00
2023-04-28T07:26:39.329Z,1262.00
2023-04-28T07:27:39.307Z,1259.00
2023-04-28T07:28:39.261Z,1263.00
2023-04-28T07:29:39.255Z,1260.00
2023-04-28T07:30:39.256Z,1272.00
2023-04-28T07:31:39.342Z,1289.00
2023-04-28T07:32:39.396Z,1295.00
2023-04-28T07:33:39.499Z,1307.00
2023-04-28T07:34:39.253Z,1312.00
2023-04-28T07:35:39.287Z,1199.00
2023-04-28T07:36:39.273Z,1181.00
2023-04-28T07:37:39.218Z,1113.00
2023-04-28T07:38:39.218Z,1096.00
2023-04-28T07:39:39.239Z,1153.00
2023-04-28T07:40:39.440Z,1175.00
2023-04-28T07:41:39.199Z,1183.00
2023-04-28T07:42:39.199Z,1185.00
2023-04-28T07:43:42.018Z,1173.00
2023-04-28T07:44:39.205Z,1161.00
2023-04-28T07:45:39.190Z,1147.00
2023-04-28T07:46:39.746Z,1127.00
2023-04-28T07:47:39.232Z,1097.00
2023-04-28T07:48:39.127Z,1081.00
2023-04-28T07:49:39.157Z,1067.00
2023-04-28T07:50:39.151Z,1056.00
2023-04-28T07:51:39.169Z,1052.00
2023-04-28T07:52:39.110Z,1039.00
2023-04-28T07:53:39.117Z,1034.00
2023-04-28T07:54:39.128Z,1048.00
2023-04-28T07:55:39.113Z,1027.00
2023-04-28T07:56:39.085Z,1024.00
2023-04-28T07:57:39.049Z,1038.00
2023-04-28T07:58:39.108Z,1049.00
2023-04-28T07:59:39.101Z,1060.00
2023-04-28T08:00:40.859Z,1063.00
2023-04-28T08:01:39.067Z,1058.00
2023-04-28T08:02:39.265Z,1049.00
2023-04-28T08:03:39.212Z,1043.00
2023-04-28T08:04:39.218Z,1040.00
2023-04-28T08:05:39.578Z,1047.00
2023-04-28T08:06:39.056Z,1054.00
2023-04-28T08:07:39.067Z,1063.00
2023-04-28T08:08:39.022Z,1070.00
2023-04-28T08:09:41.127Z,1073.00
2023-04-28T08:10:39.009Z,1090.00
2023-04-28T08:11:39.494Z,1259.00
2023-04-28T08:12:38.992Z,1134.00
2023-04-28T08:13:39.004Z,1123.00
2023-04-28T08:14:38.953Z,1143.00
2023-04-28T08:15:39.057Z,1149.00
2023-04-28T08:16:39.009Z,1163.00
2023-04-28T08:17:38.988Z,1173.00
2023-04-28T08:18:39.119Z,1203.00
2023-04-28T08:19:38.940Z,1264.00
2023-04-28T08:20:39.044Z,1279.00
2023-04-28T08:21:38.940Z,1278.00
2023-04-28T08:22:38.968Z,1319.00
2023-04-28T08:23:38.964Z,1371.00
2023-04-28T08:24:38.904Z,1442.00
2023-04-28T08:25:38.997Z,1476.00
2023-04-28T08:26:39.040Z,1478.00
2023-04-28T08:27:39.030Z,1497.00
2023-04-28T08:28:38.892Z,1516.00
2023-04-28T08:29:39.004Z,1430.00
2023-04-28T08:30:38.921Z,1395.00
2023-04-28T08:31:38.947Z,1377.00
2023-04-28T08:32:38.915Z,1324.00
2023-04-28T08:33:38.861Z,1309.00
2023-04-28T08:34:38.985Z,1356.00
2023-04-28T08:35:38.891Z,1319.00
2023-04-28T08:36:38.840Z,1295.00
2023-04-28T08:37:38.851Z,1253.00
2023-04-28T08:38:38.851Z,1246.00
2023-04-28T08:39:39.012Z,1227.00
2023-04-28T08:40:38.826Z,1120.00
2023-04-28T08:41:38.822Z,1118.00
2023-04-28T08:42:38.804Z,1112.00
2023-04-28T08:43:38.849Z,1101.00
2023-04-28T08:44:38.815Z,1086.00
2023-04-28T08:45:38.810Z,1073.00
2023-04-28T08:46:38.786Z,1063.00
2023-04-28T08:47:38.869Z,1050.00
2023-04-28T08:48:38.833Z,1034.00
2023-04-28T08:49:38.831Z,1016.00
2023-04-28T08:50:38.793Z,1001.00
2023-04-28T08:51:40.852Z,991.00
2023-04-28T08:52:39.053Z,980.00
2023-04-28T08:53:59.375Z,970.00
2023-04-28T08:54:40.029Z,957.00
2023-04-28T08:55:39.035Z,944.00
2023-04-28T08:56:38.713Z,928.00
2023-04-28T08:57:40.739Z,916.00
2023-04-28T08:58:38.989Z,906.00
2023-04-28T08:59:38.839Z,899.00
2023-04-28T09:00:38.835Z,891.00
2023-04-28T09:01:38.876Z,884.00
2023-04-28T09:02:38.996Z,875.00
2023-04-28T09:03:39.129Z,867.00
2023-04-28T09:04:39.145Z,861.00
2023-04-28T09:05:39.163Z,851.00
2023-04-28T09:06:39.532Z,841.00
2023-04-28T09:07:39.061Z,834.00
2023-04-28T09:08:39.023Z,827.00
2023-04-28T09:09:39.397Z,820.00
2023-04-28T09:10:39.068Z,813.00
2023-04-28T09:11:39.097Z,807.00
2023-04-28T09:12:39.103Z,803.00
2023-04-28T09:13:39.133Z,797.00
2023-04-28T09:14:39.175Z,790.00
2023-04-28T09:15:39.264Z,784.00
2023-04-28T09:16:39.259Z,778.00
2023-04-28T09:17:39.249Z,769.00
2023-04-28T09:18:39.266Z,764.00
2023-04-28T09:19:39.341Z,757.00
2023-04-28T09:20:39.351Z,753.00
2023-04-28T09:21:39.360Z,752.00
2023-04-28T09:22:39.555Z,753.00
2023-04-28T09:23:39.423Z,750.00
2023-04-28T09:24:39.441Z,749.00
2023-04-28T09:25:39.476Z,751.00
2023-04-28T09:26:39.534Z,753.00
2023-04-28T09:27:39.558Z,751.00
2023-04-28T09:28:39.667Z,751.00
2023-04-28T09:29:39.661Z,752.00
2023-04-28T09:30:39.729Z,780.00
2023-04-28T09:31:39.829Z,917.00
2023-04-28T09:32:40.136Z,861.00
2023-04-28T09:33:39.855Z,882.00
2023-04-28T09:34:39.913Z,947.00
2023-04-28T09:35:39.928Z,950.00
2023-04-28T09:36:39.981Z,957.00
2023-04-28T09:37:40.051Z,961.00
2023-04-28T09:38:40.036Z,962.00
2023-04-28T09:39:40.052Z,954.00
2023-04-28T09:40:40.052Z,947.00
2023-04-28T09:41:40.056Z,946.00
2023-04-28T09:42:40.121Z,953.00
2023-04-28T09:43:40.149Z,959.00
2023-04-28T09:44:40.187Z,965.00
2023-04-28T09:45:40.646Z,967.00
2023-04-28T09:46:40.289Z,978.00
2023-04-28T09:47:40.121Z,1016.00
2023-04-28T09:48:40.188Z,1008.00
2023-04-28T09:49:40.602Z,995.00
2023-04-28T09:50:40.129Z,990.00
2023-04-28T09:51:51.098Z,984.00
2023-04-28T09:52:40.144Z,979.00
2023-04-28T09:53:40.115Z,980.00
2023-04-28T09:54:40.215Z,978.00
2023-04-28T09:55:40.118Z,982.00
2023-04-28T09:56:40.140Z,987.00
2023-04-28T09:57:41.036Z,984.00
2023-04-28T09:58:40.534Z,984.00
2023-04-28T09:59:40.543Z,986.00
2023-04-28T10:00:40.084Z,983.00
2023-04-28T10:01:40.182Z,981.00
2023-04-28T10:02:43.408Z,983.00
2023-04-28T10:03:40.312Z,986.00
2023-04-28T10:04:40.293Z,994.00
2023-04-28T10:05:40.191Z,1008.00
2023-04-28T10:06:40.020Z,1015.00
2023-04-28T10:07:40.052Z,1026.00
2023-04-28T10:08:39.997Z,1032.00
2023-04-28T10:09:40.026Z,1037.00
2023-04-28T10:10:40.008Z,1044.00
2023-04-28T10:11:39.958Z,1048.00
2023-04-28T10:12:40.011Z,1050.00
2023-04-28T10:13:40.032Z,1056.00
2023-04-28T10:14:39.969Z,1063.00
2023-04-28T10:15:40.010Z,1074.00
2023-04-28T10:16:39.987Z,1074.00
2023-04-28T10:17:39.990Z,1081.00
2023-04-28T10:18:39.915Z,1081.00
2023-04-28T10:19:39.951Z,1087.00
2023-04-28T10:20:39.977Z,1095.00
2023-04-28T10:21:39.925Z,1093.00
2023-04-28T10:22:39.921Z,1100.00
2023-04-28T10:23:39.938Z,1106.00
2023-04-28T10:24:39.893Z,1106.00
2023-04-28T10:25:40.071Z,1114.00
2023-04-28T10:26:39.868Z,1114.00
2023-04-28T10:27:39.914Z,1111.00
2023-04-28T10:28:40.714Z,1100.00
2023-04-28T10:29:39.872Z,1093.00
2023-04-28T10:30:39.897Z,1085.00
2023-04-28T10:31:39.989Z,1081.00
2023-04-28T10:32:40.006Z,1077.00
2023-04-28T10:33:40.013Z,1072.00
2023-04-28T10:34:40.104Z,1073.00
2023-04-28T10:35:40.188Z,1063.00
2023-04-28T10:36:40.590Z,1051.00
2023-04-28T10:37:40.599Z,1035.00
2023-04-28T10:38:40.340Z,1030.00
2023-04-28T10:39:40.610Z,1028.00
2023-04-28T10:40:40.583Z,1028.00
2023-04-28T10:41:41.092Z,1023.00
2023-04-28T10:42:40.552Z,1017.00
2023-04-28T10:43:40.599Z,1013.00
2023-04-28T10:44:40.650Z,1015.00
2023-04-28T10:45:41.034Z,1012.00
2023-04-28T10:46:40.720Z,1003.00
2023-04-28T10:47:40.796Z,996.00
2023-04-28T10:48:40.817Z,991.00
2023-04-28T10:49:40.820Z,986.00
2023-04-28T10:50:40.897Z,982.00
2023-04-28T10:51:41.065Z,977.00
2023-04-28T10:52:41.002Z,976.00
2023-04-28T10:53:41.027Z,970.00
2023-04-28T10:54:41.040Z,970.00
2023-04-28T10:55:41.026Z,967.00
2023-04-28T10:56:42.149Z,964.00
2023-04-28T10:57:41.074Z,964.00
2023-04-28T10:58:41.158Z,956.00
2023-04-28T10:59:41.184Z,945.00
2023-04-28T11:00:41.205Z,942.00
2023-04-28T11:01:41.282Z,942.00
2023-04-28T11:02:43.846Z,938.00
2023-04-28T11:03:41.309Z,934.00
2023-04-28T11:04:41.420Z,928.00
2023-04-28T11:05:41.624Z,921.00
2023-04-28T11:06:41.261Z,917.00
2023-04-28T11:07:41.256Z,915.00
2023-04-28T11:08:41.266Z,917.00
2023-04-28T11:09:41.241Z,909.00
2023-04-28T11:10:41.232Z,906.00
2023-04-28T11:11:41.202Z,908.00
2023-04-28T11:12:41.257Z,909.00
2023-04-28T11:13:42.660Z,909.00
2023-04-28T11:14:41.198Z,912.00
2023-04-28T11:15:41.218Z,910.00
2023-04-28T11:16:41.271Z,911.00
2023-04-28T11:17:41.215Z,912.00
2023-04-28T11:18:42.114Z,904.00
2023-04-28T11:19:41.196Z,899.00
2023-04-28T11:20:42.079Z,892.00
2023-04-28T11:21:41.576Z,887.00
2023-04-28T11:22:41.164Z,875.00
2023-04-28T11:23:41.175Z,869.00
2023-04-28T11:24:41.205Z,861.00
2023-04-28T11:25:41.169Z,850.00
2023-04-28T11:26:41.135Z,843.00
2023-04-28T11:27:41.133Z,838.00
2023-04-28T11:28:41.165Z,827.00
2023-04-28T11:29:41.091Z,814.00
2023-04-28T11:30:41.116Z,807.00
2023-04-28T11:31:41.135Z,803.00
2023-04-28T11:32:41.198Z,797.00
2023-04-28T11:33:41.095Z,793.00
2023-04-28T11:34:41.117Z,787.00
2023-04-28T11:35:41.119Z,778.00
2023-04-28T11:36:41.069Z,771.00
2023-04-28T11:37:41.110Z,767.00
2023-04-28T11:38:41.047Z,763.00
2023-04-28T11:39:41.071Z,758.00
2023-04-28T11:40:41.029Z,753.00
2023-04-28T11:41:41.026Z,751.00
2023-04-28T11:42:41.035Z,749.00
2023-04-28T11:43:47.460Z,746.00
2023-04-28T11:44:41.998Z,740.00
2023-04-28T11:45:41.073Z,734.00
2023-04-28T11:46:41.022Z,730.00
2023-04-28T11:47:41.038Z,731.00
2023-04-28T11:48:41.041Z,731.00
2023-04-28T11:49:40.988Z,725.00
2023-04-28T11:50:40.998Z,722.00
2023-04-28T11:51:40.999Z,720.00
2023-04-28T11:52:40.965Z,717.00
2023-04-28T11:53:40.963Z,716.00
2023-04-28T11:54:40.974Z,715.00
2023-04-28T11:55:40.940Z,712.00
2023-04-28T11:56:40.933Z,712.00
2023-04-28T11:57:40.936Z,711.00
2023-04-28T11:58:40.950Z,709.00
2023-04-28T11:59:42.789Z,705.00
2023-04-28T12:00:40.895Z,706.00
2023-04-28T12:01:40.981Z,707.00
2023-04-28T12:02:41.076Z,705.00
2023-04-28T12:03:40.977Z,705.00
2023-04-28T12:04:40.927Z,703.00
2023-04-28T12:05:40.943Z,702.00
2023-04-28T12:06:40.903Z,702.00
2023-04-28T12:07:40.865Z,703.00
2023-04-28T12:08:40.851Z,701.00
2023-04-28T12:09:41.146Z,698.00
2023-04-28T12:10:40.931Z,698.00
2023-04-28T12:11:40.894Z,696.00
2023-04-28T12:13:40.872Z,689.00
2023-04-28T12:14:41.077Z,688.00
2023-04-28T12:15:40.972Z,689.00
2023-04-28T12:16:40.886Z,688.00
2023-04-28T12:17:40.888Z,687.00
2023-04-28T12:18:40.833Z,686.00
2023-04-28T12:19:41.002Z,688.00
2023-04-28T12:20:40.910Z,687.00
2023-04-28T12:21:40.838Z,686.00
2023-04-28T12:22:40.862Z,685.00
2023-04-28T12:23:40.807Z,686.00